Rocas de Santo Domingo, Chile
Current Conditions -  °F | °C
As of 2:00 PM on Monday 26 Jan 2015 (Local Time) from SCSN Reporting Station
Broken Clouds Broken Clouds  
Wind Chill: 64°   Ceiling: 400
Heat Index: 64°   Visibility: 6mi
Dew Point: 57°   Wind: 9mph
Humidity: 77%   Direction: 260°W
Pressure: 29.88"   Gusts: NA
Location:  33.64°S, 71.62°W
Report Text: SCSN 261800Z 26008KT 230V290 9999 BKN004 18/14 Q1012
Loading
Personal Weather Stations






























Interactive Weather Map New forecast layout! Learn more

10-Day Weather Forecast

Advertisements
Track Severe Weather on mobile